Jackie Cenac — WDG9141 — position and weather

sailwx.info

Track history (hours):
 
Tides and Currents Weather Stations Pressure Air Temp Water Temp Dewpoint Dewpoint Depression Visibility Wind Speed Wind Dir Waves Ship Positions

Jackie Cenac

Owner: Cenac Marine Services, Houma, LA. More information available from US FCC via Universal Licensing System and Coast Guard Vessel Documentation Center.

Last reported at 2017-Nov-24 14:38 UTC. Time now 2017-Nov-25 09:49 UTC.
Position N 30°01' W 093°59'.

Length 22 m; draft 3.3 m.

Type: Tug. MMSI: 367584740.

Date/timePositionNaut miles runAvg speedWind from/ knotsBaromVisibWave heightAir tempDewpointWater temp
2017-Nov-24 14:38N 30°01' W 093°59'0 0.0
2017-Nov-24 13:34N 30°01' W 093°59'  
2017-Nov-18 07:02N 29°46' W 095°05'0 0.0
2017-Nov-17 20:01N 29°46' W 095°05'0 0.0
2017-Nov-17 19:46N 29°46' W 095°05'0 0.0
2017-Nov-17 16:31N 29°46' W 095°05'0 2.1
2017-Nov-17 16:30N 29°46' W 095°05'0 0.0
2017-Nov-17 15:52N 29°46' W 095°05'0 0.0
2017-Nov-17 13:39N 29°46' W 095°05'0 0.0
2017-Nov-16 05:45N 29°46' W 095°05'1 0.0
2017-Nov-15 14:25N 29°46' W 095°04'3 6.0
2017-Nov-15 13:50N 29°44' W 095°01'2 5.5
2017-Nov-15 13:28N 29°42' W 094°60'3 6.6
2017-Nov-15 13:00N 29°39' W 094°58'3 6.3
2017-Nov-15 12:30N 29°36' W 094°57'4 7.2
2017-Nov-15 12:00N 29°33' W 094°55'  
Track history (hours):
 
Tides and Currents Weather Stations Pressure Air Temp Water Temp Dewpoint Dewpoint Depression Visibility Wind Speed Wind Dir Waves Ship Positions

Jackie Cenac

Owner: Cenac Marine Services, Houma, LA. More information available from US FCC via Universal Licensing System and Coast Guard Vessel Documentation Center.

Last reported at 2017-Nov-24 14:38 UTC. Time now 2017-Nov-25 09:49 UTC.
Position N 30°01' W 093°59'.

Length 22 m; draft 3.3 m.

Type: Tug. MMSI: 367584740.

Date/timePositionNaut miles runAvg speedWind from/ knotsBaromVisibWave heightAir tempDewpointWater temp
2017-Nov-24 14:38N 30°01' W 093°59'0 0.0
2017-Nov-24 13:34N 30°01' W 093°59'  
2017-Nov-18 07:02N 29°46' W 095°05'0 0.0
2017-Nov-17 20:01N 29°46' W 095°05'0 0.0
2017-Nov-17 19:46N 29°46' W 095°05'0 0.0
2017-Nov-17 16:31N 29°46' W 095°05'0 2.1
2017-Nov-17 16:30N 29°46' W 095°05'0 0.0
2017-Nov-17 15:52N 29°46' W 095°05'0 0.0
2017-Nov-17 13:39N 29°46' W 095°05'0 0.0
2017-Nov-16 05:45N 29°46' W 095°05'1 0.0
2017-Nov-15 14:25N 29°46' W 095°04'3 6.0
2017-Nov-15 13:50N 29°44' W 095°01'2 5.5
2017-Nov-15 13:28N 29°42' W 094°60'3 6.6
2017-Nov-15 13:00N 29°39' W 094°58'3 6.3
2017-Nov-15 12:30N 29°36' W 094°57'4 7.2
2017-Nov-15 12:00N 29°33' W 094°55'  

Dump ship's entire track history